createdAt,value
2019-01-21T00:01:56.319Z,23.33
2019-01-21T00:04:27.908Z,23.30
2019-01-21T00:07:00.909Z,21.97
2019-01-21T00:09:33.663Z,19.80
2019-01-21T00:12:05.041Z,22.63
2019-01-21T00:14:36.534Z,21.30
2019-01-21T00:17:09.145Z,20.43
2019-01-21T00:19:41.942Z,21.80
2019-01-21T00:22:13.393Z,20.83
2019-01-21T00:24:45.910Z,20.00
2019-01-21T00:27:17.305Z,21.60
2019-01-21T00:29:48.695Z,20.53
2019-01-21T00:32:22.261Z,20.20
2019-01-21T00:34:56.847Z,20.20
2019-01-21T00:37:28.480Z,20.00
2019-01-21T00:40:00.248Z,19.63
2019-01-21T00:42:32.564Z,18.87
2019-01-21T00:45:05.179Z,19.07
2019-01-21T00:47:38.103Z,18.87
2019-01-21T00:50:13.188Z,18.97
2019-01-21T00:52:44.744Z,18.43
2019-01-21T00:55:16.077Z,19.37
2019-01-21T00:57:47.506Z,18.43
2019-01-21T01:00:24.010Z,18.73
2019-01-21T01:02:55.653Z,19.00
2019-01-21T01:05:26.978Z,18.27
2019-01-21T01:07:59.330Z,17.87
2019-01-21T01:10:33.754Z,17.53
2019-01-21T01:13:05.128Z,19.63
2019-01-21T01:15:44.485Z,18.03
2019-01-21T01:18:15.798Z,16.37
2019-01-21T01:20:47.206Z,17.83
2019-01-21T01:23:18.621Z,17.40
2019-01-21T01:25:49.996Z,16.67
2019-01-21T01:28:21.410Z,18.73
2019-01-21T01:30:53.436Z,18.20
2019-01-21T01:33:24.853Z,17.20
2019-01-21T01:35:56.451Z,17.10
2019-01-21T01:38:28.022Z,16.03
2019-01-21T01:41:00.809Z,17.47
2019-01-21T01:43:32.273Z,15.37
2019-01-21T01:46:05.175Z,17.83
2019-01-21T01:48:37.914Z,17.97
2019-01-21T01:51:09.461Z,16.93
2019-01-21T01:53:42.322Z,17.47
2019-01-21T01:56:13.621Z,18.47
2019-01-21T01:58:45.043Z,17.63
2019-01-21T02:01:16.437Z,18.00
2019-01-21T02:03:47.988Z,18.83
2019-01-21T02:06:19.477Z,18.73
2019-01-21T02:08:51.063Z,19.10
2019-01-21T02:11:24.134Z,19.20
2019-01-21T02:13:56.839Z,18.17
2019-01-21T02:16:29.979Z,20.50
2019-01-21T02:19:01.440Z,19.83
2019-01-21T02:21:35.430Z,18.60
2019-01-21T02:24:09.964Z,20.37
2019-01-21T02:27:05.934Z,20.53
2019-01-21T02:30:09.059Z,18.90
2019-01-21T02:33:16.344Z,18.50
2019-01-21T02:36:09.484Z,19.37
2019-01-21T02:39:17.227Z,18.13
2019-01-21T02:41:53.115Z,18.27
2019-01-21T02:45:26.051Z,19.23
2019-01-21T02:48:11.323Z,17.97
2019-01-21T02:51:18.316Z,19.40
2019-01-21T02:54:12.102Z,18.23
2019-01-21T02:57:16.804Z,18.90
2019-01-21T03:00:19.309Z,19.60
2019-01-21T03:03:32.907Z,19.27
2019-01-21T03:06:31.309Z,19.27
2019-01-21T03:09:41.273Z,19.80
2019-01-21T03:12:35.910Z,18.73
2019-01-21T03:15:40.589Z,19.57
2019-01-21T03:18:38.322Z,18.40
2019-01-21T03:21:45.337Z,18.50
2019-01-21T03:24:55.908Z,20.23
2019-01-21T03:28:27.300Z,18.50
2019-01-21T03:31:33.075Z,19.67
2019-01-21T03:34:51.654Z,17.77
2019-01-21T03:38:00.870Z,17.40
2019-01-21T03:41:01.228Z,18.27
2019-01-21T03:44:12.035Z,17.77
2019-01-21T03:47:41.642Z,17.40
2019-01-21T03:50:53.056Z,17.43
2019-01-21T03:53:55.052Z,16.30
2019-01-21T03:56:46.522Z,16.77
2019-01-21T03:59:47.678Z,17.53
2019-01-21T04:02:57.095Z,16.63
2019-01-21T04:05:51.340Z,16.90
2019-01-21T04:09:12.896Z,15.83
2019-01-21T04:12:43.228Z,18.00
2019-01-21T04:15:45.654Z,16.30
2019-01-21T04:19:06.008Z,16.07
2019-01-21T04:22:13.010Z,16.83
2019-01-21T04:25:00.203Z,17.00
2019-01-21T04:28:31.289Z,17.93
2019-01-21T04:31:29.401Z,17.20
2019-01-21T04:34:19.078Z,17.07
2019-01-21T04:37:23.335Z,17.07
2019-01-21T04:40:47.551Z,18.83
2019-01-21T04:43:37.475Z,15.47
2019-01-21T04:46:45.798Z,16.77
2019-01-21T04:50:01.666Z,16.80
2019-01-21T04:53:21.433Z,18.10
2019-01-21T04:56:23.894Z,16.60
2019-01-21T04:59:57.777Z,18.47
2019-01-21T05:03:18.211Z,18.37
2019-01-21T05:06:13.609Z,16.80
2019-01-21T05:09:14.200Z,19.33
2019-01-21T05:12:24.602Z,18.53
2019-01-21T05:15:16.965Z,18.80
2019-01-21T05:18:50.261Z,19.23
2019-01-21T05:22:04.846Z,20.47
2019-01-21T05:25:22.785Z,20.40
2019-01-21T05:28:39.220Z,19.53
2019-01-21T05:31:45.162Z,20.00
2019-01-21T05:34:52.690Z,20.00
2019-01-21T05:38:23.233Z,21.00
2019-01-21T05:41:07.680Z,19.63
2019-01-21T05:44:18.421Z,22.70
2019-01-21T05:47:19.096Z,22.27
2019-01-21T05:50:19.543Z,23.03
2019-01-21T05:53:19.213Z,22.27
2019-01-21T05:56:25.019Z,22.90
2019-01-21T05:59:50.395Z,20.60
2019-01-21T06:02:40.227Z,21.67
2019-01-21T06:05:46.309Z,22.70
2019-01-21T06:08:38.236Z,21.13
2019-01-21T06:11:26.702Z,22.03
2019-01-21T06:14:35.532Z,20.77
2019-01-21T06:17:59.830Z,21.13
2019-01-21T06:21:07.088Z,22.40
2019-01-21T06:23:56.713Z,19.70
2019-01-21T06:27:17.289Z,22.33
2019-01-21T06:30:30.987Z,21.43
2019-01-21T06:33:24.971Z,20.83
2019-01-21T06:36:26.526Z,21.23
2019-01-21T06:39:33.701Z,20.87
2019-01-21T06:42:36.616Z,22.53
2019-01-21T06:45:47.683Z,21.37
2019-01-21T06:49:04.863Z,20.87
2019-01-21T06:52:15.265Z,20.67
2019-01-21T06:55:18.750Z,19.43
2019-01-21T06:58:37.502Z,18.77
2019-01-21T07:01:53.587Z,19.03
2019-01-21T07:04:59.922Z,17.40
2019-01-21T07:07:56.267Z,19.07
2019-01-21T07:11:09.841Z,17.67
2019-01-21T07:14:28.893Z,16.37
2019-01-21T07:17:30.389Z,17.97
2019-01-21T07:20:57.612Z,16.83
2019-01-21T07:24:18.051Z,18.07
2019-01-21T07:28:03.871Z,17.10
2019-01-21T07:31:18.516Z,16.57
2019-01-21T07:34:28.405Z,16.93
2019-01-21T07:37:28.112Z,18.40
2019-01-21T07:40:38.689Z,18.23
2019-01-21T07:43:34.457Z,17.63
2019-01-21T07:46:55.950Z,17.47
2019-01-21T07:50:11.985Z,15.87
2019-01-21T07:53:13.165Z,17.10
2019-01-21T07:56:32.231Z,17.27
2019-01-21T07:59:50.400Z,16.97
2019-01-21T08:02:57.855Z,16.30
2019-01-21T08:06:28.716Z,17.50
2019-01-21T08:09:37.159Z,16.83
2019-01-21T08:12:49.409Z,18.20
2019-01-21T08:16:00.122Z,17.57
2019-01-21T08:19:03.882Z,17.60
2019-01-21T08:22:05.310Z,16.30
2019-01-21T08:25:04.440Z,17.57
2019-01-21T08:28:26.342Z,18.07
2019-01-21T08:31:22.244Z,18.73
2019-01-21T08:34:20.469Z,19.63
2019-01-21T08:37:33.134Z,19.67
2019-01-21T08:40:21.336Z,19.50
2019-01-21T08:43:27.977Z,18.70
2019-01-21T08:46:50.764Z,20.90
2019-01-21T08:49:56.543Z,21.77
2019-01-21T08:52:58.906Z,21.47
2019-01-21T08:56:34.025Z,19.80
2019-01-21T08:59:36.854Z,23.33
2019-01-21T09:02:32.471Z,21.00
2019-01-21T09:05:55.306Z,22.93
2019-01-21T09:08:57.319Z,21.93
2019-01-21T09:12:18.394Z,22.07
2019-01-21T09:15:39.970Z,18.60
2019-01-21T09:19:00.559Z,23.23
2019-01-21T09:25:16.917Z,20.27
2019-01-21T09:28:25.707Z,20.17
2019-01-21T09:31:32.050Z,21.43
2019-01-21T09:34:21.150Z,22.97
2019-01-21T09:37:41.949Z,22.33
2019-01-21T09:40:59.058Z,21.57
2019-01-21T09:44:24.905Z,24.73
2019-01-21T09:46:56.018Z,22.80
2019-01-21T09:49:26.262Z,25.90
2019-01-21T09:52:07.543Z,23.73
2019-01-21T09:54:41.704Z,22.63
2019-01-21T09:57:22.289Z,23.20
2019-01-21T09:59:59.433Z,24.60
2019-01-21T10:02:39.128Z,25.27
2019-01-21T10:05:16.134Z,25.20
2019-01-21T10:08:49.110Z,24.20
2019-01-21T10:11:47.194Z,23.80
2019-01-21T10:14:50.416Z,25.00
2019-01-21T10:17:33.555Z,24.47
2019-01-21T10:20:43.063Z,25.60
2019-01-21T10:23:51.773Z,24.70
2019-01-21T10:27:02.522Z,24.57
2019-01-21T10:30:19.335Z,23.90
2019-01-21T10:33:25.936Z,24.30
2019-01-21T10:36:32.648Z,24.00
2019-01-21T10:39:40.497Z,26.30
2019-01-21T10:42:34.554Z,27.47
2019-01-21T10:45:37.491Z,28.83
2019-01-21T10:48:38.326Z,29.00
2019-01-21T10:51:21.920Z,30.97
2019-01-21T10:54:31.390Z,29.63
2019-01-21T10:57:24.085Z,31.33
2019-01-21T11:00:29.318Z,43.20
2019-01-21T11:03:29.315Z,44.13
2019-01-21T11:06:41.894Z,38.30
2019-01-21T11:09:52.378Z,34.57
2019-01-21T11:13:11.886Z,35.97
2019-01-21T11:16:07.680Z,36.50
2019-01-21T11:19:01.625Z,34.03
2019-01-21T11:22:06.101Z,37.97
2019-01-21T11:25:11.298Z,33.90
2019-01-21T11:28:26.509Z,30.67
2019-01-21T11:31:43.274Z,32.70
2019-01-21T11:35:01.258Z,31.20
2019-01-21T11:38:16.775Z,32.23
2019-01-21T11:41:17.532Z,29.07
2019-01-21T11:44:26.668Z,27.80
2019-01-21T11:47:47.609Z,29.00
2019-01-21T11:51:14.884Z,31.13
2019-01-21T11:54:29.800Z,29.93
2019-01-21T11:57:28.721Z,28.73
2019-01-21T12:00:41.159Z,29.83
2019-01-21T12:03:24.071Z,27.63
2019-01-21T12:06:01.163Z,29.17
2019-01-21T12:09:07.471Z,28.57
2019-01-21T12:12:11.317Z,28.73
2019-01-21T12:15:05.949Z,28.17
2019-01-21T12:18:06.115Z,27.13
2019-01-21T12:21:13.736Z,28.30
2019-01-21T12:24:16.681Z,28.60
2019-01-21T12:27:14.925Z,29.30
2019-01-21T12:30:02.399Z,27.77
2019-01-21T12:33:15.925Z,27.07
2019-01-21T12:36:19.001Z,28.50
2019-01-21T12:39:46.508Z,29.23
2019-01-21T12:42:53.100Z,28.13
2019-01-21T12:45:42.976Z,30.47
2019-01-21T12:49:06.365Z,28.33
2019-01-21T12:52:33.516Z,30.33
2019-01-21T12:55:45.328Z,30.17
2019-01-21T12:59:02.526Z,30.27
2019-01-21T13:02:21.217Z,30.83
2019-01-21T13:05:18.512Z,31.50
2019-01-21T13:08:05.320Z,32.43
2019-01-21T13:11:29.663Z,34.67
2019-01-21T13:14:42.261Z,33.90
2019-01-21T13:17:36.180Z,34.13
2019-01-21T13:20:36.037Z,34.50
2019-01-21T13:24:06.422Z,37.40
2019-01-21T13:27:10.283Z,34.40
2019-01-21T13:30:37.720Z,34.87
2019-01-21T13:33:42.757Z,33.37
2019-01-21T13:36:52.429Z,33.77
2019-01-21T13:39:55.067Z,34.47
2019-01-21T13:42:40.987Z,34.63
2019-01-21T13:45:40.329Z,34.90
2019-01-21T13:48:31.317Z,34.43
2019-01-21T13:51:39.290Z,35.13
2019-01-21T13:54:42.773Z,33.63
2019-01-21T13:58:05.012Z,36.17
2019-01-21T14:01:20.724Z,33.53
2019-01-21T14:04:38.104Z,34.73
2019-01-21T14:08:00.335Z,34.20
2019-01-21T14:11:28.011Z,33.53
2019-01-21T14:14:27.288Z,32.83
2019-01-21T14:17:49.934Z,33.33
2019-01-21T14:20:43.452Z,32.27
2019-01-21T14:23:36.717Z,31.43
2019-01-21T14:26:37.545Z,31.20
2019-01-21T14:29:16.467Z,31.27
2019-01-21T14:32:11.391Z,31.77
2019-01-21T14:35:23.024Z,31.33
2019-01-21T14:38:33.545Z,31.73
2019-01-21T14:41:46.220Z,30.53
2019-01-21T14:44:59.378Z,29.87
2019-01-21T14:48:07.641Z,30.53
2019-01-21T14:51:12.275Z,30.57
2019-01-21T14:54:27.498Z,29.60
2019-01-21T14:57:35.579Z,30.57
2019-01-21T15:00:47.203Z,29.60
2019-01-21T15:04:03.026Z,29.57
2019-01-21T15:07:13.663Z,31.47
2019-01-21T15:10:11.917Z,30.10
2019-01-21T15:13:30.491Z,30.33
2019-01-21T15:16:17.656Z,29.30
2019-01-21T15:19:08.139Z,30.30
2019-01-21T15:21:57.660Z,31.13
2019-01-21T15:25:30.673Z,31.77
2019-01-21T15:28:56.910Z,29.57
2019-01-21T15:32:04.715Z,30.77
2019-01-21T15:35:20.642Z,34.00
2019-01-21T15:38:19.436Z,32.67
2019-01-21T15:41:32.333Z,31.63
2019-01-21T15:44:32.078Z,31.57
2019-01-21T15:47:59.708Z,33.50
2019-01-21T15:50:54.150Z,29.90
2019-01-21T15:53:57.196Z,31.30
2019-01-21T15:56:47.524Z,31.33
2019-01-21T16:00:00.813Z,31.00
2019-01-21T16:03:28.141Z,33.27
2019-01-21T16:06:18.847Z,31.00
2019-01-21T16:09:15.877Z,32.80
2019-01-21T16:12:15.941Z,33.30
2019-01-21T16:15:06.561Z,32.07
2019-01-21T16:18:05.813Z,33.43
2019-01-21T16:21:29.603Z,32.47
2019-01-21T16:24:33.415Z,33.03
2019-01-21T16:27:29.770Z,34.63
2019-01-21T16:30:56.171Z,33.77
2019-01-21T16:33:56.555Z,34.23
2019-01-21T16:37:06.378Z,35.53
2019-01-21T16:40:03.843Z,34.37
2019-01-21T16:42:36.606Z,36.60
2019-01-21T16:45:09.942Z,35.73
2019-01-21T16:47:42.438Z,36.27
2019-01-21T16:50:15.959Z,37.53
2019-01-21T16:52:47.999Z,38.23
2019-01-21T16:55:23.488Z,38.00
2019-01-21T16:57:54.818Z,38.90
2019-01-21T17:00:26.622Z,38.80
2019-01-21T17:02:59.580Z,40.53
2019-01-21T17:05:30.911Z,38.80
2019-01-21T17:08:09.654Z,39.43
2019-01-21T17:10:41.330Z,38.37
2019-01-21T17:13:12.612Z,39.03
2019-01-21T17:15:43.993Z,41.77
2019-01-21T17:18:16.001Z,41.90
2019-01-21T17:20:47.582Z,42.60
2019-01-21T17:23:19.151Z,44.50
2019-01-21T17:25:50.707Z,47.03
2019-01-21T17:28:22.040Z,49.40
2019-01-21T17:30:56.247Z,46.97
2019-01-21T17:33:29.662Z,49.63
2019-01-21T17:36:01.438Z,47.57
2019-01-21T17:38:33.588Z,49.57
2019-01-21T17:41:04.973Z,49.83
2019-01-21T17:43:39.086Z,54.80
2019-01-21T17:46:15.803Z,58.10
2019-01-21T17:48:50.052Z,58.43
2019-01-21T17:54:22.518Z,53.90
2019-01-21T17:56:58.339Z,51.50
2019-01-21T17:59:31.140Z,48.90
2019-01-21T18:02:02.827Z,52.03
2019-01-21T18:04:34.264Z,50.83
2019-01-21T18:07:06.829Z,49.70
2019-01-21T18:09:40.769Z,47.80
2019-01-21T18:12:15.397Z,49.07
2019-01-21T18:14:51.430Z,47.73
2019-01-21T18:17:28.699Z,45.60
2019-01-21T18:20:02.674Z,46.87
2019-01-21T18:22:36.063Z,45.63
2019-01-21T18:25:10.502Z,51.37
2019-01-21T18:27:43.196Z,48.27
2019-01-21T18:30:22.870Z,48.67
2019-01-21T18:33:04.950Z,49.80
2019-01-21T18:35:37.347Z,46.90
2019-01-21T18:38:10.530Z,47.20
2019-01-21T18:40:44.279Z,46.83
2019-01-21T18:43:16.398Z,49.03
2019-01-21T18:45:48.429Z,48.10
2019-01-21T18:48:19.858Z,47.10
2019-01-21T18:50:52.892Z,47.50
2019-01-21T18:53:24.310Z,45.27
2019-01-21T18:55:56.971Z,46.17
2019-01-21T18:58:30.230Z,46.00
2019-01-21T19:01:04.367Z,46.67
2019-01-21T19:03:40.217Z,45.60
2019-01-21T19:06:11.833Z,46.40
2019-01-21T19:08:46.545Z,46.73
2019-01-21T19:11:21.251Z,48.30
2019-01-21T19:13:55.038Z,48.73
2019-01-21T19:16:26.312Z,48.27
2019-01-21T19:18:57.781Z,49.67
2019-01-21T19:21:29.021Z,48.47
2019-01-21T19:24:15.317Z,51.97
2019-01-21T19:26:46.590Z,50.40
2019-01-21T19:29:18.833Z,47.93
2019-01-21T19:31:50.199Z,50.63
2019-01-21T19:34:21.693Z,50.10
2019-01-21T19:36:55.951Z,49.20
2019-01-21T19:39:30.613Z,49.30
2019-01-21T19:42:02.746Z,51.13
2019-01-21T19:44:36.342Z,52.90
2019-01-21T19:47:09.775Z,51.63
2019-01-21T19:49:42.991Z,51.03
2019-01-21T19:52:17.508Z,50.40
2019-01-21T19:54:50.593Z,52.67
2019-01-21T19:57:23.466Z,48.63
2019-01-21T19:59:56.340Z,47.73
2019-01-21T20:02:30.556Z,48.40
2019-01-21T20:05:02.200Z,48.73
2019-01-21T20:07:33.643Z,47.40
2019-01-21T20:10:07.701Z,48.13
2019-01-21T20:12:43.489Z,48.53
2019-01-21T20:15:15.639Z,45.10
2019-01-21T20:17:47.151Z,48.73
2019-01-21T20:20:38.964Z,48.53
2019-01-21T20:23:11.277Z,45.63
2019-01-21T20:25:44.406Z,44.50
2019-01-21T20:28:26.861Z,46.07
2019-01-21T20:30:59.000Z,45.77
2019-01-21T20:36:36.881Z,44.60
2019-01-21T20:39:10.000Z,44.50
2019-01-21T20:41:41.453Z,45.67
2019-01-21T20:44:13.537Z,43.03
2019-01-21T20:46:44.778Z,45.03
2019-01-21T20:49:36.493Z,45.53
2019-01-21T20:52:14.121Z,44.77
2019-01-21T20:54:42.019Z,46.17
2019-01-21T20:57:16.352Z,43.03
2019-01-21T20:59:49.542Z,43.10
2019-01-21T21:02:24.635Z,44.63
2019-01-21T21:04:58.258Z,44.70
2019-01-21T21:07:37.122Z,44.03
2019-01-21T21:10:12.362Z,45.60
2019-01-21T21:12:51.823Z,45.47
2019-01-21T21:15:30.719Z,43.63
2019-01-21T21:18:03.716Z,45.00
2019-01-21T21:20:46.916Z,45.47
2019-01-21T21:23:18.163Z,43.33
2019-01-21T21:25:53.352Z,44.87
2019-01-21T21:28:31.166Z,42.77
2019-01-21T21:31:02.886Z,43.43
2019-01-21T21:33:36.256Z,45.63
2019-01-21T21:36:10.453Z,46.27
2019-01-21T21:38:43.417Z,45.83
2019-01-21T21:41:15.093Z,43.83
2019-01-21T21:43:47.262Z,47.50
2019-01-21T21:46:20.218Z,44.83
2019-01-21T21:48:58.186Z,45.83
2019-01-21T21:51:40.012Z,48.67
2019-01-21T21:54:18.850Z,46.13
2019-01-21T21:56:52.340Z,46.63
2019-01-21T21:59:23.802Z,45.97
2019-01-21T22:01:59.941Z,44.07
2019-01-21T22:04:38.069Z,45.60
2019-01-21T22:07:09.892Z,45.83
2019-01-21T22:09:41.502Z,46.63
2019-01-21T22:12:13.937Z,46.47
2019-01-21T22:14:49.146Z,46.43
2019-01-21T22:17:23.644Z,47.80
2019-01-21T22:19:55.130Z,46.53
2019-01-21T22:22:26.951Z,50.30
2019-01-21T22:25:02.071Z,46.77
2019-01-21T22:27:57.278Z,47.80
2019-01-21T22:30:28.806Z,46.37
2019-01-21T22:33:04.061Z,44.47
2019-01-21T22:35:45.930Z,45.80
2019-01-21T22:38:17.697Z,48.03
2019-01-21T22:40:53.938Z,46.40
2019-01-21T22:43:25.226Z,49.73
2019-01-21T22:45:58.897Z,51.70
2019-01-21T22:48:38.001Z,50.30
2019-01-21T22:51:10.344Z,48.53
2019-01-21T22:53:44.694Z,51.13
2019-01-21T22:56:25.905Z,51.23
2019-01-21T22:59:03.378Z,50.50
2019-01-21T23:01:35.361Z,51.40
2019-01-21T23:04:07.326Z,51.23
2019-01-21T23:06:39.652Z,48.40
2019-01-21T23:09:26.343Z,48.67
2019-01-21T23:11:57.681Z,49.23
2019-01-21T23:14:31.374Z,48.47
2019-01-21T23:17:09.886Z,50.20
2019-01-21T23:19:43.122Z,52.03
2019-01-21T23:22:17.868Z,52.83
2019-01-21T23:24:50.126Z,51.30
2019-01-21T23:27:21.543Z,50.90
2019-01-21T23:30:08.123Z,48.93
2019-01-21T23:32:44.526Z,49.60
2019-01-21T23:35:18.314Z,50.70
2019-01-21T23:37:55.209Z,52.80
2019-01-21T23:40:29.567Z,51.93
2019-01-21T23:43:07.113Z,52.07
2019-01-21T23:45:42.752Z,51.13
2019-01-21T23:48:15.045Z,52.47
2019-01-21T23:50:46.588Z,54.90
2019-01-21T23:53:19.361Z,54.30
2019-01-21T23:55:51.301Z,55.27
2019-01-21T23:58:24.477Z,51.60
